El Rito, NM

3:58 PM MDT on April 27, 2015 (GMT -0600)
Santa Fe Municipal | | Change Station
CLOSE
Current Station
Airport
Location: Santa Fe,
Elevation: 6345 ft
Nearby Weather Stations

Elev 6345 ft 35.62 °N, 106.09 °W | Updated 1 hour ago

Partly Cloudy
Partly Cloudy
54 °F
Feels Like 54 °F
N
7
Wind Variable Wind from Variable
Gusts 28 mph

Today
High -- | Low -- °F
--% Chance of Precip.
Yesterday
High -- | Low -- °F
Precip. -- in
6:16 AM 7:49 PM
Waxing Gibbous, 68% visible
Pressure 29.92 in
Visibility 10.0 miles
Clouds Mostly Cloudy 6500 ft
Dew Point 37 °F
Humidity 53%
Rainfall 0.11 in
Snow Depth Not available.
UV 5 out of 12
Pollen 1.00 out of 12
Air Quality Not available.
Flu Activity Local Activity
METAR KSAF 272053Z AUTO VRB06G24KT 10SM BKN065 12/03 A3005 RMK AO2 PK WND 35027/2002 SLP130 T01220028 53001

More Conditions Fewer Conditions

Pressure 29.92 in
Visibility 10.0 miles
Clouds Mostly Cloudy 6500 ft
Dew Point 37 °F
Humidity 53%
Rainfall 0.11 in
Snow Depth Not available.
UV 5 out of 12
Pollen 1.00 out of 12
Air Quality Not available.
Flu Activity Local Activity
METAR KSAF 272053Z AUTO VRB06G24KT 10SM BKN065 12/03 A3005 RMK AO2 PK WND 35027/2002 SLP130 T01220028 53001

More Conditions Fewer Conditions

Nowcast | as of 3:30 PM MDT on April 27, 2015

Through 530 PM MDT...scattered showers and a few thunderstorms will continue mainly near and east of the Continental Divide and west from the Central Mountain chain into the early evening hours. This activity will continue to move to the southwest around 15 mph and produce modest rainfall amounts and brief gusty winds. The strongest storms may also produce brief instances of small hail and a few lightning strikes. A few favored areas include western Valencia County...southeast Cibola County...northwest and eastern Socorro County and northeast Catron County.

×

10-Day Weather Forecast

Almanac

Astronomy

Apr. 27, 2015 Rise Set
Actual Time
Civil Twilight
Nautical Twilight
Astronomical Twilight
Moon
Length of Visible Light
Length of Day
Tomorrow will be .
, % of the Moon is Illuminated

Today's Extremes

State Highs State Lows

Community

WunderPhotos

Upload Photos

1,817,435 photos uploaded!

WunderBlogs® & News

Nearby

Air Quality

  Air Quality AQ Index Pollutant
Not available.

Snow Depth

Station Depth Elevation

Earthquake Activity

City Distance Mag. Time & Date
Minimum magnitude displayed is 2.5.

Coastal Water Temperatures

Place Temperature

Stations

Nearby Weather Stations

Station Location Temp. Windchill Dew Point Humidity Wind Precip. Elev Updated Type